sensor_id;sensor_type;location;lat;lon;timestamp;P1;durP1;ratioP1;P2;durP2;ratioP2
20870;SDS011;10595;51.218;3.452;2022-11-20T00:01:14;93.10;;;37.97;;
20870;SDS011;10595;51.218;3.452;2022-11-20T00:03:40;88.47;;;37.40;;
20870;SDS011;10595;51.218;3.452;2022-11-20T00:06:08;88.07;;;37.97;;
20870;SDS011;10595;51.218;3.452;2022-11-20T00:08:34;86.73;;;36.63;;
20870;SDS011;10595;51.218;3.452;2022-11-20T00:11:04;87.07;;;36.40;;
20870;SDS011;10595;51.218;3.452;2022-11-20T00:13:30;87.07;;;35.63;;
20870;SDS011;10595;51.218;3.452;2022-11-20T00:15:57;84.23;;;35.13;;
20870;SDS011;10595;51.218;3.452;2022-11-20T00:18:23;83.43;;;35.43;;
20870;SDS011;10595;51.218;3.452;2022-11-20T00:20:49;95.73;;;37.23;;
20870;SDS011;10595;51.218;3.452;2022-11-20T00:23:15;91.90;;;38.17;;
20870;SDS011;10595;51.218;3.452;2022-11-20T00:25:41;97.07;;;39.40;;
20870;SDS011;10595;51.218;3.452;2022-11-20T00:28:07;96.60;;;38.53;;
20870;SDS011;10595;51.218;3.452;2022-11-20T00:30:33;89.13;;;37.60;;
20870;SDS011;10595;51.218;3.452;2022-11-20T00:32:59;94.63;;;38.53;;
20870;SDS011;10595;51.218;3.452;2022-11-20T00:35:25;92.13;;;39.37;;
20870;SDS011;10595;51.218;3.452;2022-11-20T00:37:51;88.80;;;37.20;;
20870;SDS011;10595;51.218;3.452;2022-11-20T00:40:17;88.77;;;37.13;;
20870;SDS011;10595;51.218;3.452;2022-11-20T00:42:43;87.90;;;37.70;;
20870;SDS011;10595;51.218;3.452;2022-11-20T00:45:09;91.23;;;38.53;;
20870;SDS011;10595;51.218;3.452;2022-11-20T00:47:35;87.70;;;37.77;;
20870;SDS011;10595;51.218;3.452;2022-11-20T00:50:01;92.50;;;37.40;;
20870;SDS011;10595;51.218;3.452;2022-11-20T00:52:27;85.90;;;38.87;;
20870;SDS011;10595;51.218;3.452;2022-11-20T00:54:53;85.87;;;37.43;;
20870;SDS011;10595;51.218;3.452;2022-11-20T00:57:19;92.77;;;40.97;;
20870;SDS011;10595;51.218;3.452;2022-11-20T00:59:45;93.70;;;39.20;;
20870;SDS011;10595;51.218;3.452;2022-11-20T01:02:11;92.60;;;38.90;;
20870;SDS011;10595;51.218;3.452;2022-11-20T01:04:37;92.40;;;38.23;;
20870;SDS011;10595;51.218;3.452;2022-11-20T01:07:03;93.67;;;39.73;;
20870;SDS011;10595;51.218;3.452;2022-11-20T01:09:29;100.10;;;39.57;;
20870;SDS011;10595;51.218;3.452;2022-11-20T01:11:55;88.60;;;39.17;;
20870;SDS011;10595;51.218;3.452;2022-11-20T01:14:21;93.17;;;40.83;;
20870;SDS011;10595;51.218;3.452;2022-11-20T01:16:48;101.97;;;40.47;;
20870;SDS011;10595;51.218;3.452;2022-11-20T01:19:16;96.13;;;40.53;;
20870;SDS011;10595;51.218;3.452;2022-11-20T01:21:43;89.13;;;39.33;;
20870;SDS011;10595;51.218;3.452;2022-11-20T01:24:13;85.50;;;37.60;;
20870;SDS011;10595;51.218;3.452;2022-11-20T01:26:40;94.57;;;39.93;;
20870;SDS011;10595;51.218;3.452;2022-11-20T01:29:08;84.20;;;36.53;;
20870;SDS011;10595;51.218;3.452;2022-11-20T01:31:36;93.20;;;37.73;;
20870;SDS011;10595;51.218;3.452;2022-11-20T01:34:03;100.67;;;38.60;;
20870;SDS011;10595;51.218;3.452;2022-11-20T01:36:30;84.87;;;36.10;;
20870;SDS011;10595;51.218;3.452;2022-11-20T01:38:57;79.50;;;35.80;;
20870;SDS011;10595;51.218;3.452;2022-11-20T01:41:24;90.47;;;37.00;;
20870;SDS011;10595;51.218;3.452;2022-11-20T01:44:10;88.77;;;37.30;;
20870;SDS011;10595;51.218;3.452;2022-11-20T01:46:38;89.50;;;36.80;;
20870;SDS011;10595;51.218;3.452;2022-11-20T01:49:14;79.87;;;34.70;;
20870;SDS011;10595;51.218;3.452;2022-11-20T01:51:43;84.53;;;35.90;;
20870;SDS011;10595;51.218;3.452;2022-11-20T01:54:12;94.20;;;38.30;;
20870;SDS011;10595;51.218;3.452;2022-11-20T01:56:40;88.37;;;36.87;;
20870;SDS011;10595;51.218;3.452;2022-11-20T01:59:07;87.37;;;36.50;;
20870;SDS011;10595;51.218;3.452;2022-11-20T02:01:35;85.90;;;36.47;;
20870;SDS011;10595;51.218;3.452;2022-11-20T02:04:01;86.00;;;35.47;;
20870;SDS011;10595;51.218;3.452;2022-11-20T02:09:06;88.83;;;36.40;;
20870;SDS011;10595;51.218;3.452;2022-11-20T02:11:32;91.17;;;36.30;;
20870;SDS011;10595;51.218;3.452;2022-11-20T02:13:58;94.10;;;37.77;;
20870;SDS011;10595;51.218;3.452;2022-11-20T02:16:25;93.77;;;36.77;;
20870;SDS011;10595;51.218;3.452;2022-11-20T02:18:52;92.37;;;36.47;;
20870;SDS011;10595;51.218;3.452;2022-11-20T02:21:21;89.30;;;36.63;;
20870;SDS011;10595;51.218;3.452;2022-11-20T02:26:24;90.40;;;39.10;;
20870;SDS011;10595;51.218;3.452;2022-11-20T02:28:50;92.77;;;37.60;;
20870;SDS011;10595;51.218;3.452;2022-11-20T02:31:16;89.20;;;39.03;;
20870;SDS011;10595;51.218;3.452;2022-11-20T02:33:42;88.33;;;38.43;;
20870;SDS011;10595;51.218;3.452;2022-11-20T02:36:09;88.67;;;36.67;;
20870;SDS011;10595;51.218;3.452;2022-11-20T02:38:37;109.30;;;40.73;;
20870;SDS011;10595;51.218;3.452;2022-11-20T02:41:03;93.73;;;39.33;;
20870;SDS011;10595;51.218;3.452;2022-11-20T02:43:29;99.00;;;40.17;;
20870;SDS011;10595;51.218;3.452;2022-11-20T02:45:55;98.57;;;40.17;;
20870;SDS011;10595;51.218;3.452;2022-11-20T02:48:21;96.00;;;39.00;;
20870;SDS011;10595;51.218;3.452;2022-11-20T02:50:47;90.90;;;38.67;;
20870;SDS011;10595;51.218;3.452;2022-11-20T02:53:13;87.60;;;37.70;;
20870;SDS011;10595;51.218;3.452;2022-11-20T02:55:39;94.67;;;37.07;;
20870;SDS011;10595;51.218;3.452;2022-11-20T02:58:05;90.40;;;37.33;;
20870;SDS011;10595;51.218;3.452;2022-11-20T03:00:31;91.60;;;36.20;;
20870;SDS011;10595;51.218;3.452;2022-11-20T03:02:57;98.53;;;37.50;;
20870;SDS011;10595;51.218;3.452;2022-11-20T03:05:23;90.67;;;37.23;;
20870;SDS011;10595;51.218;3.452;2022-11-20T03:07:49;87.20;;;36.60;;
20870;SDS011;10595;51.218;3.452;2022-11-20T03:10:15;92.93;;;38.03;;
20870;SDS011;10595;51.218;3.452;2022-11-20T03:12:41;101.70;;;39.37;;
20870;SDS011;10595;51.218;3.452;2022-11-20T03:15:07;94.07;;;37.60;;
20870;SDS011;10595;51.218;3.452;2022-11-20T03:17:33;92.87;;;37.30;;
20870;SDS011;10595;51.218;3.452;2022-11-20T03:19:59;91.37;;;37.47;;
20870;SDS011;10595;51.218;3.452;2022-11-20T03:22:28;93.97;;;37.97;;
20870;SDS011;10595;51.218;3.452;2022-11-20T03:24:54;105.20;;;40.20;;
20870;SDS011;10595;51.218;3.452;2022-11-20T03:27:20;94.63;;;38.27;;
20870;SDS011;10595;51.218;3.452;2022-11-20T03:29:46;104.67;;;41.03;;
20870;SDS011;10595;51.218;3.452;2022-11-20T03:32:12;112.80;;;43.13;;
20870;SDS011;10595;51.218;3.452;2022-11-20T03:34:38;106.33;;;41.63;;
20870;SDS011;10595;51.218;3.452;2022-11-20T03:37:04;117.43;;;42.53;;
20870;SDS011;10595;51.218;3.452;2022-11-20T03:39:30;116.37;;;42.93;;
20870;SDS011;10595;51.218;3.452;2022-11-20T03:41:56;114.40;;;43.67;;
20870;SDS011;10595;51.218;3.452;2022-11-20T03:44:22;118.13;;;43.07;;
20870;SDS011;10595;51.218;3.452;2022-11-20T03:46:48;123.83;;;45.03;;
20870;SDS011;10595;51.218;3.452;2022-11-20T03:49:14;116.40;;;44.70;;
20870;SDS011;10595;51.218;3.452;2022-11-20T03:51:40;132.13;;;46.77;;
20870;SDS011;10595;51.218;3.452;2022-11-20T03:54:06;123.23;;;45.07;;
20870;SDS011;10595;51.218;3.452;2022-11-20T03:56:34;122.27;;;43.60;;
20870;SDS011;10595;51.218;3.452;2022-11-20T03:59:01;126.83;;;45.73;;
20870;SDS011;10595;51.218;3.452;2022-11-20T04:01:28;120.20;;;42.80;;
20870;SDS011;10595;51.218;3.452;2022-11-20T04:03:55;124.50;;;43.37;;
20870;SDS011;10595;51.218;3.452;2022-11-20T04:06:25;121.70;;;43.73;;
20870;SDS011;10595;51.218;3.452;2022-11-20T04:08:53;119.50;;;43.30;;
20870;SDS011;10595;51.218;3.452;2022-11-20T04:11:21;120.83;;;45.17;;
20870;SDS011;10595;51.218;3.452;2022-11-20T04:13:57;116.27;;;44.97;;
20870;SDS011;10595;51.218;3.452;2022-11-20T04:16:23;120.57;;;42.77;;
20870;SDS011;10595;51.218;3.452;2022-11-20T04:18:53;121.60;;;43.73;;
20870;SDS011;10595;51.218;3.452;2022-11-20T04:21:20;115.33;;;41.57;;
20870;SDS011;10595;51.218;3.452;2022-11-20T04:23:46;118.30;;;43.67;;
20870;SDS011;10595;51.218;3.452;2022-11-20T04:26:12;107.53;;;40.30;;
20870;SDS011;10595;51.218;3.452;2022-11-20T04:28:38;104.67;;;41.77;;
20870;SDS011;10595;51.218;3.452;2022-11-20T04:31:05;122.23;;;43.47;;
20870;SDS011;10595;51.218;3.452;2022-11-20T04:33:32;112.60;;;41.53;;
20870;SDS011;10595;51.218;3.452;2022-11-20T04:36:09;114.40;;;44.57;;
20870;SDS011;10595;51.218;3.452;2022-11-20T04:38:36;114.20;;;42.20;;
20870;SDS011;10595;51.218;3.452;2022-11-20T04:41:03;115.13;;;42.67;;
20870;SDS011;10595;51.218;3.452;2022-11-20T04:43:29;112.13;;;42.97;;
20870;SDS011;10595;51.218;3.452;2022-11-20T04:45:56;110.30;;;42.53;;
20870;SDS011;10595;51.218;3.452;2022-11-20T04:48:22;117.77;;;43.10;;
20870;SDS011;10595;51.218;3.452;2022-11-20T04:50:48;114.90;;;41.13;;
20870;SDS011;10595;51.218;3.452;2022-11-20T04:53:14;109.57;;;41.17;;
20870;SDS011;10595;51.218;3.452;2022-11-20T04:55:40;115.00;;;42.40;;
20870;SDS011;10595;51.218;3.452;2022-11-20T04:58:07;110.77;;;41.30;;
20870;SDS011;10595;51.218;3.452;2022-11-20T05:00:33;122.03;;;41.37;;
20870;SDS011;10595;51.218;3.452;2022-11-20T05:02:59;108.07;;;40.47;;
20870;SDS011;10595;51.218;3.452;2022-11-20T05:05:25;115.10;;;41.40;;
20870;SDS011;10595;51.218;3.452;2022-11-20T05:07:51;114.47;;;40.80;;
20870;SDS011;10595;51.218;3.452;2022-11-20T05:10:17;106.70;;;42.50;;
20870;SDS011;10595;51.218;3.452;2022-11-20T05:12:43;112.17;;;41.03;;
20870;SDS011;10595;51.218;3.452;2022-11-20T05:15:09;127.37;;;43.73;;
20870;SDS011;10595;51.218;3.452;2022-11-20T05:17:35;122.13;;;42.37;;
20870;SDS011;10595;51.218;3.452;2022-11-20T05:20:01;117.00;;;42.67;;
20870;SDS011;10595;51.218;3.452;2022-11-20T05:22:27;130.37;;;42.80;;
20870;SDS011;10595;51.218;3.452;2022-11-20T05:24:53;122.67;;;41.73;;
20870;SDS011;10595;51.218;3.452;2022-11-20T05:27:19;117.10;;;40.20;;
20870;SDS011;10595;51.218;3.452;2022-11-20T05:29:45;132.97;;;42.83;;
20870;SDS011;10595;51.218;3.452;2022-11-20T05:32:11;126.77;;;41.67;;
20870;SDS011;10595;51.218;3.452;2022-11-20T05:34:37;130.43;;;40.67;;
20870;SDS011;10595;51.218;3.452;2022-11-20T05:37:03;122.03;;;40.60;;
20870;SDS011;10595;51.218;3.452;2022-11-20T05:39:29;123.83;;;42.03;;
20870;SDS011;10595;51.218;3.452;2022-11-20T05:41:55;147.03;;;41.00;;
20870;SDS011;10595;51.218;3.452;2022-11-20T05:44:40;121.07;;;41.50;;
20870;SDS011;10595;51.218;3.452;2022-11-20T05:47:06;124.57;;;40.83;;
20870;SDS011;10595;51.218;3.452;2022-11-20T05:49:32;131.80;;;41.07;;
20870;SDS011;10595;51.218;3.452;2022-11-20T05:51:58;130.50;;;41.03;;
20870;SDS011;10595;51.218;3.452;2022-11-20T05:54:24;121.87;;;40.97;;
20870;SDS011;10595;51.218;3.452;2022-11-20T05:56:50;135.40;;;43.80;;
20870;SDS011;10595;51.218;3.452;2022-11-20T05:59:16;130.43;;;40.47;;
20870;SDS011;10595;51.218;3.452;2022-11-20T06:01:42;133.20;;;41.50;;
20870;SDS011;10595;51.218;3.452;2022-11-20T06:04:08;136.00;;;43.67;;
20870;SDS011;10595;51.218;3.452;2022-11-20T06:06:34;142.33;;;43.63;;
20870;SDS011;10595;51.218;3.452;2022-11-20T06:09:00;148.63;;;43.97;;
20870;SDS011;10595;51.218;3.452;2022-11-20T06:11:26;146.70;;;43.73;;
20870;SDS011;10595;51.218;3.452;2022-11-20T06:13:52;136.10;;;42.53;;
20870;SDS011;10595;51.218;3.452;2022-11-20T06:16:18;152.67;;;43.87;;
20870;SDS011;10595;51.218;3.452;2022-11-20T06:18:46;140.47;;;42.37;;
20870;SDS011;10595;51.218;3.452;2022-11-20T06:21:14;131.77;;;41.63;;
20870;SDS011;10595;51.218;3.452;2022-11-20T06:23:41;139.00;;;43.27;;
20870;SDS011;10595;51.218;3.452;2022-11-20T06:26:07;135.50;;;42.63;;
20870;SDS011;10595;51.218;3.452;2022-11-20T06:28:34;139.77;;;42.70;;
20870;SDS011;10595;51.218;3.452;2022-11-20T06:31:00;131.23;;;40.80;;
20870;SDS011;10595;51.218;3.452;2022-11-20T06:33:26;130.87;;;40.97;;
20870;SDS011;10595;51.218;3.452;2022-11-20T06:35:55;129.07;;;39.87;;
20870;SDS011;10595;51.218;3.452;2022-11-20T06:38:21;134.33;;;39.20;;
20870;SDS011;10595;51.218;3.452;2022-11-20T06:40:47;124.30;;;37.97;;
20870;SDS011;10595;51.218;3.452;2022-11-20T06:43:13;119.83;;;37.93;;
20870;SDS011;10595;51.218;3.452;2022-11-20T06:45:39;112.83;;;36.57;;
20870;SDS011;10595;51.218;3.452;2022-11-20T06:48:05;107.10;;;33.70;;
20870;SDS011;10595;51.218;3.452;2022-11-20T06:50:31;106.00;;;33.73;;
20870;SDS011;10595;51.218;3.452;2022-11-20T06:53:00;98.63;;;34.20;;
20870;SDS011;10595;51.218;3.452;2022-11-20T06:55:27;103.53;;;37.40;;
20870;SDS011;10595;51.218;3.452;2022-11-20T06:57:53;103.73;;;34.60;;
20870;SDS011;10595;51.218;3.452;2022-11-20T07:00:19;104.10;;;35.00;;
20870;SDS011;10595;51.218;3.452;2022-11-20T07:02:45;97.30;;;32.60;;
20870;SDS011;10595;51.218;3.452;2022-11-20T07:05:11;108.43;;;33.67;;
20870;SDS011;10595;51.218;3.452;2022-11-20T07:07:37;98.60;;;32.80;;
20870;SDS011;10595;51.218;3.452;2022-11-20T07:10:03;99.97;;;34.47;;
20870;SDS011;10595;51.218;3.452;2022-11-20T07:12:29;99.53;;;32.97;;
20870;SDS011;10595;51.218;3.452;2022-11-20T07:14:55;104.80;;;34.80;;
20870;SDS011;10595;51.218;3.452;2022-11-20T07:17:21;110.33;;;34.10;;
20870;SDS011;10595;51.218;3.452;2022-11-20T07:19:47;109.93;;;35.03;;
20870;SDS011;10595;51.218;3.452;2022-11-20T07:22:13;112.00;;;34.50;;
20870;SDS011;10595;51.218;3.452;2022-11-20T07:24:39;115.83;;;35.47;;
20870;SDS011;10595;51.218;3.452;2022-11-20T07:27:05;108.27;;;35.00;;
20870;SDS011;10595;51.218;3.452;2022-11-20T07:29:31;110.10;;;34.30;;
20870;SDS011;10595;51.218;3.452;2022-11-20T07:31:58;119.00;;;35.10;;
20870;SDS011;10595;51.218;3.452;2022-11-20T07:34:24;118.20;;;35.43;;
20870;SDS011;10595;51.218;3.452;2022-11-20T07:36:50;117.47;;;34.67;;
20870;SDS011;10595;51.218;3.452;2022-11-20T07:39:16;118.13;;;34.97;;
20870;SDS011;10595;51.218;3.452;2022-11-20T07:41:42;119.07;;;35.00;;
20870;SDS011;10595;51.218;3.452;2022-11-20T07:44:08;115.93;;;35.87;;
20870;SDS011;10595;51.218;3.452;2022-11-20T07:46:34;126.03;;;36.60;;
20870;SDS011;10595;51.218;3.452;2022-11-20T07:49:00;130.10;;;36.90;;
20870;SDS011;10595;51.218;3.452;2022-11-20T07:51:26;139.73;;;39.47;;
20870;SDS011;10595;51.218;3.452;2022-11-20T07:53:53;139.00;;;37.90;;
20870;SDS011;10595;51.218;3.452;2022-11-20T07:56:19;151.93;;;39.37;;
20870;SDS011;10595;51.218;3.452;2022-11-20T07:58:45;146.50;;;41.27;;
20870;SDS011;10595;51.218;3.452;2022-11-20T08:01:11;138.20;;;36.97;;
20870;SDS011;10595;51.218;3.452;2022-11-20T08:03:37;142.70;;;40.17;;
20870;SDS011;10595;51.218;3.452;2022-11-20T08:06:03;133.73;;;37.80;;
20870;SDS011;10595;51.218;3.452;2022-11-20T08:08:29;137.40;;;37.20;;
20870;SDS011;10595;51.218;3.452;2022-11-20T08:10:58;130.27;;;37.70;;
20870;SDS011;10595;51.218;3.452;2022-11-20T08:13:43;135.23;;;37.57;;
20870;SDS011;10595;51.218;3.452;2022-11-20T08:16:28;138.17;;;37.57;;
20870;SDS011;10595;51.218;3.452;2022-11-20T08:18:54;145.93;;;40.50;;
20870;SDS011;10595;51.218;3.452;2022-11-20T08:21:21;144.63;;;40.03;;
20870;SDS011;10595;51.218;3.452;2022-11-20T08:23:47;158.00;;;40.30;;
20870;SDS011;10595;51.218;3.452;2022-11-20T08:26:13;145.57;;;40.30;;
20870;SDS011;10595;51.218;3.452;2022-11-20T08:28:39;165.20;;;41.67;;
20870;SDS011;10595;51.218;3.452;2022-11-20T08:31:05;132.77;;;38.60;;
20870;SDS011;10595;51.218;3.452;2022-11-20T08:33:31;144.50;;;39.67;;
20870;SDS011;10595;51.218;3.452;2022-11-20T08:36:01;147.77;;;39.57;;
20870;SDS011;10595;51.218;3.452;2022-11-20T08:38:27;130.73;;;38.20;;
20870;SDS011;10595;51.218;3.452;2022-11-20T08:40:56;156.97;;;40.90;;
20870;SDS011;10595;51.218;3.452;2022-11-20T08:43:40;132.63;;;38.93;;
20870;SDS011;10595;51.218;3.452;2022-11-20T08:46:06;142.10;;;38.23;;
20870;SDS011;10595;51.218;3.452;2022-11-20T08:48:32;136.30;;;38.33;;
20870;SDS011;10595;51.218;3.452;2022-11-20T08:50:58;128.93;;;36.17;;
20870;SDS011;10595;51.218;3.452;2022-11-20T08:53:25;142.50;;;38.47;;
20870;SDS011;10595;51.218;3.452;2022-11-20T08:55:51;126.50;;;37.17;;
20870;SDS011;10595;51.218;3.452;2022-11-20T08:58:17;134.97;;;36.87;;
20870;SDS011;10595;51.218;3.452;2022-11-20T09:00:43;137.33;;;37.03;;
20870;SDS011;10595;51.218;3.452;2022-11-20T09:03:09;133.60;;;37.50;;
20870;SDS011;10595;51.218;3.452;2022-11-20T09:05:35;133.37;;;38.27;;
20870;SDS011;10595;51.218;3.452;2022-11-20T09:08:01;127.70;;;38.03;;
20870;SDS011;10595;51.218;3.452;2022-11-20T09:10:27;135.77;;;38.33;;
20870;SDS011;10595;51.218;3.452;2022-11-20T09:12:53;131.33;;;37.23;;
20870;SDS011;10595;51.218;3.452;2022-11-20T09:15:20;116.20;;;35.83;;
20870;SDS011;10595;51.218;3.452;2022-11-20T09:17:52;121.23;;;36.63;;
20870;SDS011;10595;51.218;3.452;2022-11-20T09:20:19;133.97;;;38.50;;
20870;SDS011;10595;51.218;3.452;2022-11-20T09:22:45;121.87;;;36.67;;
20870;SDS011;10595;51.218;3.452;2022-11-20T09:25:11;125.43;;;36.80;;
20870;SDS011;10595;51.218;3.452;2022-11-20T09:27:37;115.07;;;36.73;;
20870;SDS011;10595;51.218;3.452;2022-11-20T09:30:04;118.83;;;35.47;;
20870;SDS011;10595;51.218;3.452;2022-11-20T09:32:30;119.23;;;35.60;;
20870;SDS011;10595;51.218;3.452;2022-11-20T09:34:56;116.93;;;38.30;;
20870;SDS011;10595;51.218;3.452;2022-11-20T09:37:22;121.50;;;35.67;;
20870;SDS011;10595;51.218;3.452;2022-11-20T09:39:48;119.00;;;34.93;;
20870;SDS011;10595;51.218;3.452;2022-11-20T09:42:17;105.23;;;33.20;;
20870;SDS011;10595;51.218;3.452;2022-11-20T09:52:41;106.47;;;34.47;;
20870;SDS011;10595;51.218;3.452;2022-11-20T09:55:11;100.97;;;32.87;;
20870;SDS011;10595;51.218;3.452;2022-11-20T09:57:39;99.03;;;31.30;;
20870;SDS011;10595;51.218;3.452;2022-11-20T10:00:10;89.27;;;32.13;;
20870;SDS011;10595;51.218;3.452;2022-11-20T10:02:49;93.80;;;33.53;;
20870;SDS011;10595;51.218;3.452;2022-11-20T10:05:20;84.40;;;29.83;;
20870;SDS011;10595;51.218;3.452;2022-11-20T10:08:07;91.70;;;36.53;;
20870;SDS011;10595;51.218;3.452;2022-11-20T10:15:55;76.83;;;28.60;;
20870;SDS011;10595;51.218;3.452;2022-11-20T10:25:56;71.27;;;27.07;;
20870;SDS011;10595;51.218;3.452;2022-11-20T10:31:03;61.50;;;24.17;;
20870;SDS011;10595;51.218;3.452;2022-11-20T10:33:34;55.07;;;23.70;;
20870;SDS011;10595;51.218;3.452;2022-11-20T10:36:08;49.77;;;21.03;;
20870;SDS011;10595;51.218;3.452;2022-11-20T10:38:43;51.27;;;20.30;;
20870;SDS011;10595;51.218;3.452;2022-11-20T10:41:13;43.67;;;20.17;;
20870;SDS011;10595;51.218;3.452;2022-11-20T10:43:57;33.77;;;17.10;;
20870;SDS011;10595;51.218;3.452;2022-11-20T10:46:25;38.00;;;16.93;;
20870;SDS011;10595;51.218;3.452;2022-11-20T10:48:54;37.95;;;18.05;;
20870;SDS011;10595;51.218;3.452;2022-11-20T10:56:30;35.83;;;16.53;;
20870;SDS011;10595;51.218;3.452;2022-11-20T10:59:02;31.63;;;14.47;;
20870;SDS011;10595;51.218;3.452;2022-11-20T11:01:28;31.93;;;14.77;;
20870;SDS011;10595;51.218;3.452;2022-11-20T11:03:55;33.23;;;15.13;;
20870;SDS011;10595;51.218;3.452;2022-11-20T11:08:51;21.47;;;11.67;;
20870;SDS011;10595;51.218;3.452;2022-11-20T11:11:52;22.43;;;12.10;;
20870;SDS011;10595;51.218;3.452;2022-11-20T11:14:12;24.00;;;11.00;;
20870;SDS011;10595;51.218;3.452;2022-11-20T11:16:51;20.83;;;10.60;;
20870;SDS011;10595;51.218;3.452;2022-11-20T11:19:17;18.90;;;9.63;;
20870;SDS011;10595;51.218;3.452;2022-11-20T11:21:47;22.10;;;9.97;;
20870;SDS011;10595;51.218;3.452;2022-11-20T11:24:20;17.20;;;10.00;;
20870;SDS011;10595;51.218;3.452;2022-11-20T11:27:10;19.93;;;9.80;;
20870;SDS011;10595;51.218;3.452;2022-11-20T11:29:36;17.90;;;9.53;;
20870;SDS011;10595;51.218;3.452;2022-11-20T11:32:03;18.93;;;8.57;;
20870;SDS011;10595;51.218;3.452;2022-11-20T11:34:30;16.47;;;8.03;;
20870;SDS011;10595;51.218;3.452;2022-11-20T11:36:58;16.83;;;7.60;;
20870;SDS011;10595;51.218;3.452;2022-11-20T11:39:25;14.33;;;7.80;;
20870;SDS011;10595;51.218;3.452;2022-11-20T11:41:51;18.30;;;7.87;;
20870;SDS011;10595;51.218;3.452;2022-11-20T11:44:18;14.03;;;7.00;;
20870;SDS011;10595;51.218;3.452;2022-11-20T11:47:05;11.37;;;6.40;;
20870;SDS011;10595;51.218;3.452;2022-11-20T11:49:32;17.93;;;6.37;;
20870;SDS011;10595;51.218;3.452;2022-11-20T11:54:38;9.83;;;5.73;;
20870;SDS011;10595;51.218;3.452;2022-11-20T11:57:09;8.27;;;5.30;;
20870;SDS011;10595;51.218;3.452;2022-11-20T12:03:06;10.87;;;5.03;;
20870;SDS011;10595;51.218;3.452;2022-11-20T12:07:53;10.93;;;5.30;;
20870;SDS011;10595;51.218;3.452;2022-11-20T12:12:54;11.70;;;5.83;;
20870;SDS011;10595;51.218;3.452;2022-11-20T12:15:24;9.70;;;5.40;;
20870;SDS011;10595;51.218;3.452;2022-11-20T12:17:51;9.10;;;5.57;;
20870;SDS011;10595;51.218;3.452;2022-11-20T12:20:17;9.40;;;5.33;;
20870;SDS011;10595;51.218;3.452;2022-11-20T12:25:17;7.60;;;5.30;;
20870;SDS011;10595;51.218;3.452;2022-11-20T12:30:29;9.70;;;4.87;;
20870;SDS011;10595;51.218;3.452;2022-11-20T12:43:06;9.90;;;4.27;;
20870;SDS011;10595;51.218;3.452;2022-11-20T13:01:25;7.37;;;4.70;;
20870;SDS011;10595;51.218;3.452;2022-11-20T13:06:47;7.27;;;4.60;;
20870;SDS011;10595;51.218;3.452;2022-11-20T13:09:15;10.63;;;5.70;;
20870;SDS011;10595;51.218;3.452;2022-11-20T13:11:47;10.67;;;6.03;;
20870;SDS011;10595;51.218;3.452;2022-11-20T13:19:12;8.03;;;5.40;;
20870;SDS011;10595;51.218;3.452;2022-11-20T13:21:39;8.67;;;5.13;;
20870;SDS011;10595;51.218;3.452;2022-11-20T13:26:44;6.27;;;4.77;;
20870;SDS011;10595;51.218;3.452;2022-11-20T13:29:11;8.57;;;5.70;;
20870;SDS011;10595;51.218;3.452;2022-11-20T13:31:43;7.07;;;5.63;;
20870;SDS011;10595;51.218;3.452;2022-11-20T13:34:11;6.13;;;5.47;;
20870;SDS011;10595;51.218;3.452;2022-11-20T13:36:38;7.87;;;5.47;;
20870;SDS011;10595;51.218;3.452;2022-11-20T13:39:23;6.80;;;5.40;;
20870;SDS011;10595;51.218;3.452;2022-11-20T13:41:53;7.87;;;5.13;;
20870;SDS011;10595;51.218;3.452;2022-11-20T13:44:31;9.43;;;5.40;;
20870;SDS011;10595;51.218;3.452;2022-11-20T13:46:59;6.07;;;5.40;;
20870;SDS011;10595;51.218;3.452;2022-11-20T13:49:27;8.50;;;6.43;;
20870;SDS011;10595;51.218;3.452;2022-11-20T13:52:19;6.33;;;5.50;;
20870;SDS011;10595;51.218;3.452;2022-11-20T13:55:06;7.40;;;5.87;;
20870;SDS011;10595;51.218;3.452;2022-11-20T14:00:32;7.60;;;6.20;;
20870;SDS011;10595;51.218;3.452;2022-11-20T14:05:54;7.30;;;6.57;;
20870;SDS011;10595;51.218;3.452;2022-11-20T14:08:28;7.20;;;6.43;;
20870;SDS011;10595;51.218;3.452;2022-11-20T14:11:30;8.10;;;7.30;;
20870;SDS011;10595;51.218;3.452;2022-11-20T14:13:54;7.53;;;6.83;;
20870;SDS011;10595;51.218;3.452;2022-11-20T14:16:21;11.03;;;7.13;;
20870;SDS011;10595;51.218;3.452;2022-11-20T14:18:47;9.97;;;7.30;;
20870;SDS011;10595;51.218;3.452;2022-11-20T14:21:21;8.67;;;7.60;;
20870;SDS011;10595;51.218;3.452;2022-11-20T14:23:47;7.57;;;6.87;;
20870;SDS011;10595;51.218;3.452;2022-11-20T14:26:14;8.97;;;7.23;;
20870;SDS011;10595;51.218;3.452;2022-11-20T14:28:42;9.23;;;7.30;;
20870;SDS011;10595;51.218;3.452;2022-11-20T14:31:22;11.17;;;7.90;;
20870;SDS011;10595;51.218;3.452;2022-11-20T14:33:48;9.83;;;5.63;;
20870;SDS011;10595;51.218;3.452;2022-11-20T14:36:18;10.70;;;5.60;;
20870;SDS011;10595;51.218;3.452;2022-11-20T14:38:45;11.30;;;4.60;;
20870;SDS011;10595;51.218;3.452;2022-11-20T14:41:19;10.03;;;3.87;;
20870;SDS011;10595;51.218;3.452;2022-11-20T14:43:56;8.07;;;3.30;;
20870;SDS011;10595;51.218;3.452;2022-11-20T14:46:22;11.73;;;2.70;;
20870;SDS011;10595;51.218;3.452;2022-11-20T14:48:51;13.50;;;2.90;;
20870;SDS011;10595;51.218;3.452;2022-11-20T14:51:39;11.90;;;2.87;;
20870;SDS011;10595;51.218;3.452;2022-11-20T14:54:13;19.17;;;2.73;;
20870;SDS011;10595;51.218;3.452;2022-11-20T14:56:40;14.50;;;3.07;;
20870;SDS011;10595;51.218;3.452;2022-11-20T14:59:07;13.50;;;2.80;;
20870;SDS011;10595;51.218;3.452;2022-11-20T15:01:33;15.37;;;3.37;;
20870;SDS011;10595;51.218;3.452;2022-11-20T15:04:06;16.97;;;3.90;;
20870;SDS011;10595;51.218;3.452;2022-11-20T15:06:34;12.43;;;2.70;;
20870;SDS011;10595;51.218;3.452;2022-11-20T15:09:02;17.77;;;3.00;;
20870;SDS011;10595;51.218;3.452;2022-11-20T15:11:29;12.87;;;3.00;;
20870;SDS011;10595;51.218;3.452;2022-11-20T15:13:55;20.93;;;3.13;;
20870;SDS011;10595;51.218;3.452;2022-11-20T15:16:22;16.13;;;2.73;;
20870;SDS011;10595;51.218;3.452;2022-11-20T15:18:49;16.67;;;2.97;;
20870;SDS011;10595;51.218;3.452;2022-11-20T15:21:17;17.03;;;3.27;;
20870;SDS011;10595;51.218;3.452;2022-11-20T15:23:44;17.93;;;3.10;;
20870;SDS011;10595;51.218;3.452;2022-11-20T15:26:10;15.87;;;3.60;;
20870;SDS011;10595;51.218;3.452;2022-11-20T15:28:44;15.30;;;2.73;;
20870;SDS011;10595;51.218;3.452;2022-11-20T15:31:12;21.80;;;3.73;;
20870;SDS011;10595;51.218;3.452;2022-11-20T15:33:39;12.67;;;2.60;;
20870;SDS011;10595;51.218;3.452;2022-11-20T15:36:05;18.47;;;3.00;;
20870;SDS011;10595;51.218;3.452;2022-11-20T15:38:31;19.03;;;4.10;;
20870;SDS011;10595;51.218;3.452;2022-11-20T15:40:57;21.00;;;3.23;;
20870;SDS011;10595;51.218;3.452;2022-11-20T15:43:23;18.57;;;3.37;;
20870;SDS011;10595;51.218;3.452;2022-11-20T15:45:49;14.13;;;3.30;;
20870;SDS011;10595;51.218;3.452;2022-11-20T15:48:20;15.23;;;3.53;;
20870;SDS011;10595;51.218;3.452;2022-11-20T15:50:52;17.00;;;4.27;;
20870;SDS011;10595;51.218;3.452;2022-11-20T15:53:19;14.77;;;3.60;;
20870;SDS011;10595;51.218;3.452;2022-11-20T15:55:45;19.37;;;3.53;;
20870;SDS011;10595;51.218;3.452;2022-11-20T15:58:11;16.27;;;3.53;;
20870;SDS011;10595;51.218;3.452;2022-11-20T16:00:38;25.73;;;4.67;;